Time;durP1;ratioP1;P1;durP2;ratioP2;P2;SDS_P1;SDS_P2;PMS_P1;PMS_P2;Temp;Humidity;BMP_temperature;BMP_pressure;BME280_temperature;BME280_humidity;BME280_pressure;Samples;Min_cycle;Max_cycle;Signal;HPM_P1;HPM_P2
2021/09/02 00:01:50;;;;;;;9.20;4.88;;;;;;;15.60;60.52;100615.97;5049913;28;20049;-71
2021/09/02 00:04:19;;;;;;;10.95;4.43;;;;;;;15.61;60.54;100614.16;5049247;28;20056;-69
2021/09/02 00:06:46;;;;;;;8.93;4.75;;;;;;;15.63;60.50;100622.88;5048944;28;20060;-73
2021/09/02 00:09:12;;;;;;;9.55;5.68;;;;;;;15.57;60.67;100621.56;5049365;28;20531;-72
2021/09/02 00:11:39;;;;;;;9.15;4.93;;;;;;;15.52;61.03;100620.28;5050215;28;20060;-74
2021/09/02 00:14:06;;;;;;;11.00;5.35;;;;;;;15.48;61.10;100612.59;5051581;28;20072;-73
2021/09/02 00:16:33;;;;;;;10.77;5.57;;;;;;;15.42;61.42;100613.13;5048648;28;20585;-71
2021/09/02 00:19:00;;;;;;;8.65;4.97;;;;;;;15.39;61.62;100613.38;5049022;28;20095;-71
2021/09/02 00:21:28;;;;;;;10.23;5.82;;;;;;;15.34;62.05;100615.63;5049121;28;20084;-70
2021/09/02 00:23:55;;;;;;;10.13;5.47;;;;;;;15.30;62.02;100616.84;5049080;28;20048;-69
2021/09/02 00:26:22;;;;;;;10.35;5.30;;;;;;;15.26;62.21;100618.09;5042980;28;20060;-68
2021/09/02 00:28:49;;;;;;;9.98;5.65;;;;;;;15.22;62.10;100614.84;5029674;28;20050;-69
2021/09/02 00:31:16;;;;;;;12.25;5.93;;;;;;;15.20;62.27;100623.94;5028504;28;20054;-72
2021/09/02 00:33:43;;;;;;;12.93;6.22;;;;;;;15.18;62.25;100625.88;5028243;28;20076;-72
2021/09/02 00:36:10;;;;;;;8.55;4.97;;;;;;;15.12;62.58;100624.59;5028468;28;20041;-71
2021/09/02 00:38:38;;;;;;;9.25;6.30;;;;;;;15.08;62.60;100631.16;5031830;28;20532;-70
2021/09/02 00:41:05;;;;;;;11.27;5.07;;;;;;;15.04;62.60;100625.25;5030012;28;20228;-69
2021/09/02 00:43:38;;;;;;;12.98;5.90;;;;;;;15.04;62.72;100635.88;5028858;28;20045;-71
2021/09/02 00:46:05;;;;;;;9.90;5.40;;;;;;;15.04;62.48;100640.38;5028613;28;20049;-71
2021/09/02 00:48:32;;;;;;;13.55;5.85;;;;;;;14.99;62.65;100638.09;5029185;28;20056;-69
2021/09/02 00:51:00;;;;;;;10.77;6.60;;;;;;;14.97;62.63;100636.56;5028857;28;20054;-71
2021/09/02 00:53:27;;;;;;;11.40;5.75;;;;;;;15.01;62.57;100645.94;5031002;28;20049;-68
2021/09/02 00:55:55;;;;;;;9.15;6.68;;;;;;;15.00;62.50;100638.94;5035114;28;20045;-70
2021/09/02 00:58:22;;;;;;;13.98;6.55;;;;;;;14.99;62.51;100637.25;5035354;28;20041;-69
2021/09/02 01:00:49;;;;;;;13.77;5.43;;;;;;;14.97;62.52;100632.06;5035256;28;20485;-68
2021/09/02 01:03:19;;;;;;;9.55;5.85;;;;;;;14.99;62.34;100635.44;5032724;28;20417;-68
2021/09/02 01:05:46;;;;;;;11.85;6.82;;;;;;;14.97;62.65;100636.56;5033032;28;20107;-67
2021/09/02 01:08:15;;;;;;;13.80;6.53;;;;;;;14.96;62.63;100633.03;5035225;28;20196;-67
2021/09/02 01:10:48;;;;;;;11.77;6.93;;;;;;;14.95;62.71;100638.50;5030370;28;20049;-68
2021/09/02 01:13:17;;;;;;;11.10;5.93;;;;;;;14.91;62.69;100637.91;5028557;28;20069;-68
2021/09/02 01:15:44;;;;;;;12.88;7.30;;;;;;;14.90;62.67;100636.22;5029238;28;20129;-69
2021/09/02 01:18:13;;;;;;;13.23;6.05;;;;;;;14.85;62.84;100631.28;5028603;28;20053;-66
2021/09/02 01:20:39;;;;;;;12.68;5.90;;;;;;;14.87;62.63;100632.00;5027607;28;20412;-69
2021/09/02 01:23:08;;;;;;;10.65;6.55;;;;;;;14.85;62.76;100643.75;5028689;28;20620;-68
2021/09/02 01:25:40;;;;;;;9.05;5.20;;;;;;;14.85;62.77;100638.41;5028240;28;20052;-67
2021/09/02 01:28:08;;;;;;;11.68;5.38;;;;;;;14.83;62.90;100643.03;5028327;28;20045;-68
2021/09/02 01:30:36;;;;;;;11.45;5.13;;;;;;;14.84;62.75;100637.59;5027324;28;20163;-68
2021/09/02 01:33:05;;;;;;;17.05;5.82;;;;;;;14.83;62.75;100637.72;5027469;28;20533;-69
2021/09/02 01:35:32;;;;;;;12.00;5.70;;;;;;;14.80;62.77;100632.63;5028101;28;20419;-69
2021/09/02 01:38:01;;;;;;;8.30;4.90;;;;;;;14.79;62.75;100631.81;5028024;28;20050;-68
2021/09/02 01:40:30;;;;;;;9.20;4.95;;;;;;;14.82;62.82;100625.38;5028011;28;20049;-68
2021/09/02 01:42:59;;;;;;;14.13;6.20;;;;;;;14.80;62.92;100629.97;5028092;28;20057;-68
2021/09/02 01:45:26;;;;;;;10.30;5.07;;;;;;;14.80;62.95;100632.63;5031765;28;20052;-68
2021/09/02 01:47:56;;;;;;;10.75;6.03;;;;;;;14.79;62.93;100631.81;5028934;28;20056;-67
2021/09/02 01:50:25;;;;;;;10.85;5.25;;;;;;;14.76;63.00;100640.03;5028162;28;20125;-67
2021/09/02 01:52:53;;;;;;;10.40;4.75;;;;;;;14.74;63.07;100643.81;5027475;28;20050;-68
2021/09/02 01:55:23;;;;;;;10.40;5.25;;;;;;;14.72;63.09;100639.44;5026954;28;20052;-68
2021/09/02 01:57:50;;;;;;;11.18;5.38;;;;;;;14.72;63.07;100643.94;5040798;28;20616;-66
2021/09/02 02:00:21;;;;;;;10.43;6.35;;;;;;;14.72;63.09;100636.78;5047523;28;20045;-68
2021/09/02 02:02:48;;;;;;;14.55;6.90;;;;;;;14.72;63.09;100643.94;5047604;28;20052;-66
2021/09/02 02:05:16;;;;;;;11.10;5.25;;;;;;;14.64;63.29;100636.59;5047285;28;20689;-67
2021/09/02 02:07:44;;;;;;;11.13;5.90;;;;;;;14.59;63.39;100641.47;5046671;28;20045;-71
2021/09/02 02:10:12;;;;;;;15.13;8.80;;;;;;;14.55;63.64;100640.00;5046768;28;20064;-67
2021/09/02 02:12:39;;;;;;;14.00;8.43;;;;;;;14.54;63.56;100643.63;5048824;28;20056;-69
2021/09/02 02:15:09;;;;;;;16.83;9.43;;;;;;;14.53;63.84;100645.44;5048749;28;20056;-71
2021/09/02 02:17:37;;;;;;;18.25;8.93;;;;;;;14.57;63.78;100647.81;5045513;28;20049;-68
2021/09/02 02:20:05;;;;;;;13.07;8.52;;;;;;;14.61;63.58;100646.66;5047556;28;20064;-67
2021/09/02 02:22:32;;;;;;;13.48;7.95;;;;;;;14.55;64.00;100655.94;5046689;28;20396;-69
2021/09/02 02:24:59;;;;;;;18.55;8.35;;;;;;;14.58;63.91;100658.38;5047170;28;20393;-68
2021/09/02 02:27:26;;;;;;;19.15;9.68;;;;;;;14.54;63.96;100648.94;5046316;28;20113;-71
2021/09/02 02:29:53;;;;;;;15.38;9.93;;;;;;;14.52;64.32;100650.88;5046620;28;20061;-72
2021/09/02 02:32:20;;;;;;;17.77;8.05;;;;;;;14.48;64.40;100652.13;5046345;28;20049;-69
2021/09/02 02:34:48;;;;;;;15.27;7.65;;;;;;;14.48;64.57;100646.78;5046939;28;20412;-70
2021/09/02 02:37:15;;;;;;;16.35;9.18;;;;;;;14.46;64.61;100651.41;5048006;28;20064;-68
2021/09/02 02:39:42;;;;;;;13.77;9.30;;;;;;;14.45;64.93;100652.34;5046658;28;20045;-69
2021/09/02 02:42:09;;;;;;;17.17;10.32;;;;;;;14.42;64.87;100652.59;5047040;28;20049;-67
2021/09/02 02:44:37;;;;;;;20.10;10.10;;;;;;;14.36;64.96;100655.78;5046434;28;20686;-72
2021/09/02 02:47:05;;;;;;;13.13;8.70;;;;;;;14.34;65.02;100653.25;5046662;28;20049;-69
2021/09/02 02:49:32;;;;;;;16.02;10.15;;;;;;;14.30;65.26;100652.66;5045796;28;20049;-73
2021/09/02 02:52:00;;;;;;;16.33;9.60;;;;;;;14.30;65.22;100651.81;5047053;28;20041;-72
2021/09/02 02:54:27;;;;;;;14.80;9.50;;;;;;;14.29;65.30;100648.28;5047348;28;20044;-71
2021/09/02 02:56:54;;;;;;;15.73;10.18;;;;;;;14.27;65.54;100650.22;5046839;28;20045;-71
2021/09/02 02:59:21;;;;;;;20.27;10.43;;;;;;;14.29;65.57;100652.75;5047000;28;20041;-74
2021/09/02 03:01:48;;;;;;;16.85;9.95;;;;;;;14.29;65.55;100640.31;5045763;28;20041;-74
2021/09/02 03:04:15;;;;;;;14.38;8.85;;;;;;;14.31;65.50;100648.16;5046280;28;20048;-69
2021/09/02 03:06:41;;;;;;;15.13;9.00;;;;;;;14.31;65.47;100643.72;5046356;28;20052;-73
2021/09/02 03:09:11;;;;;;;16.25;8.10;;;;;;;14.31;65.59;100633.09;5047138;28;20045;-75
2021/09/02 03:11:38;;;;;;;14.27;7.50;;;;;;;14.29;65.64;100642.97;5045763;28;20084;-68
2021/09/02 03:14:05;;;;;;;15.48;7.63;;;;;;;14.28;65.57;100646.63;5045640;28;20056;-69
2021/09/02 03:16:32;;;;;;;13.93;8.15;;;;;;;14.25;65.69;100648.69;5046281;28;20049;-72
2021/09/02 03:18:59;;;;;;;11.48;7.50;;;;;;;14.25;65.74;100643.38;5046546;28;20045;-73
2021/09/02 03:21:26;;;;;;;15.07;7.88;;;;;;;14.22;65.84;100643.59;5045715;28;20053;-70
2021/09/02 03:23:53;;;;;;;12.20;7.13;;;;;;;14.20;65.86;100650.88;5046257;28;20052;-68
2021/09/02 03:26:21;;;;;;;11.93;7.57;;;;;;;14.20;65.76;100641.06;5045461;28;20049;-72
2021/09/02 03:28:48;;;;;;;14.35;7.70;;;;;;;14.23;65.81;100645.31;5046432;28;20053;-68
2021/09/02 03:31:15;;;;;;;11.68;6.97;;;;;;;14.24;65.76;100637.22;5045872;28;20169;-71
2021/09/02 03:33:42;;;;;;;11.50;6.00;;;;;;;14.28;65.62;100633.34;5047092;28;20055;-70
2021/09/02 03:36:09;;;;;;;9.82;5.90;;;;;;;14.28;65.67;100633.34;5046458;28;20386;-67
2021/09/02 03:38:36;;;;;;;15.43;7.63;;;;;;;14.28;65.60;100643.13;5045038;28;20052;-67
2021/09/02 03:41:03;;;;;;;14.85;8.32;;;;;;;14.31;65.63;100640.19;5045346;28;20052;-66
2021/09/02 03:43:31;;;;;;;13.65;6.75;;;;;;;14.32;65.57;100634.75;5046507;28;20049;-67
2021/09/02 03:45:58;;;;;;;13.15;7.03;;;;;;;14.33;65.49;100630.28;5045474;28;20320;-66
2021/09/02 03:48:25;;;;;;;17.33;8.18;;;;;;;14.32;65.79;100637.41;5045656;28;20339;-67
2021/09/02 03:50:52;;;;;;;10.73;6.20;;;;;;;14.29;65.69;100635.00;5047007;28;20047;-68
2021/09/02 03:53:19;;;;;;;13.85;7.13;;;;;;;14.23;65.97;100630.22;5045976;28;20049;-63
2021/09/02 03:55:55;;;;;;;16.17;7.45;;;;;;;14.17;66.05;100636.03;5046285;28;20076;-66
2021/09/02 03:58:22;;;;;;;10.35;5.90;;;;;;;14.11;66.21;100628.53;5047415;28;20052;-67
2021/09/02 04:00:50;;;;;;;21.25;9.00;;;;;;;14.04;66.46;100636.16;5045774;28;20093;-65
2021/09/02 04:03:17;;;;;;;13.27;7.10;;;;;;;13.99;66.50;100632.19;5045574;28;20045;-66
2021/09/02 04:05:44;;;;;;;15.65;7.63;;;;;;;14.00;66.54;100634.72;5043127;28;20045;-66
2021/09/02 04:08:11;;;;;;;13.00;6.90;;;;;;;14.03;66.55;100631.00;5045638;28;20053;-69
2021/09/02 04:10:39;;;;;;;10.93;6.60;;;;;;;14.05;66.58;100634.38;5045824;28;20045;-66
2021/09/02 04:13:06;;;;;;;13.73;6.88;;;;;;;14.12;66.13;100633.75;5049399;28;20068;-65
2021/09/02 04:15:33;;;;;;;15.57;7.28;;;;;;;14.20;66.30;100624.31;5049997;28;20383;-68
2021/09/02 04:18:01;;;;;;;17.42;6.38;;;;;;;14.32;65.98;100628.59;5051002;28;20526;-68
2021/09/02 04:20:28;;;;;;;16.23;7.60;;;;;;;14.50;65.63;100632.41;5049350;28;20128;-66
2021/09/02 04:22:55;;;;;;;12.00;7.32;;;;;;;14.53;65.62;100632.16;5050092;28;20056;-67
2021/09/02 04:25:22;;;;;;;11.80;6.90;;;;;;;14.55;65.47;100629.38;5050564;28;20057;-67
2021/09/02 04:27:48;;;;;;;12.35;7.70;;;;;;;14.64;65.16;100627.75;5048648;28;20064;-67
2021/09/02 04:30:15;;;;;;;18.98;8.35;;;;;;;14.78;64.96;100639.91;5049871;28;20063;-66
2021/09/02 04:32:43;;;;;;;14.98;8.57;;;;;;;14.85;64.61;100638.41;5048219;28;20053;-69
2021/09/02 04:35:13;;;;;;;13.70;8.52;;;;;;;14.82;64.93;100634.22;5048795;28;20061;-66
2021/09/02 04:37:42;;;;;;;15.45;8.93;;;;;;;14.78;64.86;100642.56;5049746;28;20045;-69
2021/09/02 04:40:10;;;;;;;14.13;7.07;;;;;;;14.77;64.88;100641.72;5048848;28;20053;-68
2021/09/02 04:42:38;;;;;;;15.77;6.82;;;;;;;14.80;64.83;100641.50;5048898;28;20107;-71
2021/09/02 04:45:06;;;;;;;11.50;6.97;;;;;;;14.86;64.90;100642.78;5050256;28;20049;-71
2021/09/02 04:47:33;;;;;;;12.80;6.57;;;;;;;14.87;64.76;100649.75;5048678;28;20530;-68
2021/09/02 04:50:01;;;;;;;11.15;6.43;;;;;;;14.85;64.83;100654.38;5048247;28;20505;-67
2021/09/02 04:52:29;;;;;;;14.43;8.77;;;;;;;14.85;64.66;100657.03;5049686;28;20483;-73
2021/09/02 04:54:56;;;;;;;13.90;6.55;;;;;;;14.88;64.66;100656.78;5049451;28;20049;-68
2021/09/02 04:57:24;;;;;;;15.02;7.38;;;;;;;14.89;64.66;100661.13;5048465;28;20045;-70
2021/09/02 04:59:51;;;;;;;11.40;7.13;;;;;;;14.87;64.65;100660.41;5047476;28;20489;-69
2021/09/02 05:02:18;;;;;;;13.30;7.00;;;;;;;14.87;64.88;100661.28;5048548;28;20056;-70
2021/09/02 05:04:45;;;;;;;15.50;6.88;;;;;;;14.88;64.81;100652.31;5047849;28;20056;-70
2021/09/02 05:07:12;;;;;;;12.75;6.07;;;;;;;14.95;64.67;100657.13;5047908;28;20048;-69
2021/09/02 05:09:40;;;;;;;13.93;6.85;;;;;;;15.31;64.14;100649.63;5047390;28;20045;-69
2021/09/02 05:12:10;;;;;;;14.98;8.77;;;;;;;15.56;63.24;100657.16;5046742;28;20523;-67
2021/09/02 05:14:38;;;;;;;17.88;9.82;;;;;;;15.71;62.70;100656.81;5046942;28;20056;-67
2021/09/02 05:17:05;;;;;;;17.67;7.70;;;;;;;15.76;62.37;100652.78;5047054;28;20076;-65
2021/09/02 05:19:32;;;;;;;11.90;6.70;;;;;;;15.79;62.28;100657.84;5047564;28;20056;-67
2021/09/02 05:21:59;;;;;;;18.10;8.00;;;;;;;15.77;62.08;100653.63;5047527;28;20055;-65
2021/09/02 05:24:25;;;;;;;18.05;7.65;;;;;;;15.73;62.14;100650.34;5046887;28;20064;-69
2021/09/02 05:26:54;;;;;;;14.25;6.20;;;;;;;15.69;62.26;100654.28;5042939;28;20052;-67
2021/09/02 05:29:21;;;;;;;11.50;7.38;;;;;;;15.72;62.34;100648.69;5028405;28;20428;-69
2021/09/02 05:31:47;;;;;;;9.80;5.88;;;;;;;15.67;62.40;100653.56;5027352;28;20057;-71
2021/09/02 05:34:14;;;;;;;11.55;6.72;;;;;;;15.56;62.94;100656.34;5043913;28;20481;-67
2021/09/02 05:36:42;;;;;;;12.77;6.80;;;;;;;15.42;62.91;100660.19;5048230;28;20041;-73
2021/09/02 05:39:09;;;;;;;11.48;7.10;;;;;;;15.37;63.14;100654.41;5047933;28;20053;-72
2021/09/02 05:41:36;;;;;;;13.00;7.80;;;;;;;15.37;63.32;100662.41;5047732;28;20511;-71
2021/09/02 05:44:06;;;;;;;14.45;7.65;;;;;;;15.36;63.46;100668.69;5047967;28;20228;-73
2021/09/02 05:46:33;;;;;;;14.23;7.22;;;;;;;15.33;63.46;100668.97;5048351;28;20131;-71
2021/09/02 05:49:00;;;;;;;11.05;7.20;;;;;;;15.34;63.16;100663.53;5047775;28;20134;-73
2021/09/02 05:51:27;;;;;;;11.90;7.63;;;;;;;15.44;63.15;100660.91;5047330;28;20052;-73
2021/09/02 05:53:54;;;;;;;10.48;6.32;;;;;;;15.58;62.73;100665.88;5048249;28;20504;-71
2021/09/02 05:56:21;;;;;;;12.52;6.70;;;;;;;15.90;62.20;100653.38;5047117;28;20048;-68
2021/09/02 05:58:48;;;;;;;12.20;6.53;;;;;;;16.09;61.57;100652.59;5047604;28;20056;-69
2021/09/02 06:01:17;;;;;;;11.27;6.10;;;;;;;16.17;61.09;100644.75;5049786;28;20052;-73
2021/09/02 06:03:44;;;;;;;12.13;5.93;;;;;;;16.21;60.76;100652.34;5048652;28;20045;-69
2021/09/02 06:06:11;;;;;;;12.30;6.82;;;;;;;16.29;60.19;100661.47;5047316;28;20067;-68
2021/09/02 06:08:38;;;;;;;13.13;8.20;;;;;;;16.37;59.78;100665.13;5049673;28;20152;-67
2021/09/02 06:11:06;;;;;;;11.98;6.05;;;;;;;16.49;59.48;100660.50;5047466;28;20055;-72
2021/09/02 06:13:34;;;;;;;13.93;6.65;;;;;;;16.68;59.34;100659.66;5047662;28;20122;-69
2021/09/02 06:16:01;;;;;;;11.77;6.78;;;;;;;16.69;58.49;100655.16;5049913;28;20408;-69
2021/09/02 06:18:30;;;;;;;18.45;8.38;;;;;;;16.80;58.57;100660.38;5047135;28;20449;-68
2021/09/02 06:20:57;;;;;;;13.57;6.35;;;;;;;16.91;58.00;100654.91;5046368;28;20045;-68
2021/09/02 06:23:24;;;;;;;12.40;7.28;;;;;;;17.07;57.79;100651.66;5046827;28;20080;-67
2021/09/02 06:25:51;;;;;;;12.00;6.63;;;;;;;17.14;57.39;100655.44;5046332;28;20045;-67
2021/09/02 06:28:18;;;;;;;11.23;6.68;;;;;;;17.24;57.38;100658.06;5045063;28;20457;-69
2021/09/02 06:30:45;;;;;;;13.68;5.95;;;;;;;17.48;56.51;100651.38;5045720;28;20049;-66
2021/09/02 06:33:12;;;;;;;11.05;7.55;;;;;;;17.50;56.22;100644.06;5047332;28;20052;-68
2021/09/02 06:35:40;;;;;;;15.75;5.30;;;;;;;17.45;56.22;100655.19;5045953;28;20041;-66
2021/09/02 06:38:08;;;;;;;15.77;8.90;;;;;;;17.43;56.17;100649.16;5046636;28;20056;-69
2021/09/02 06:40:35;;;;;;;13.55;6.57;;;;;;;17.29;56.80;100653.13;5046233;28;20048;-68
2021/09/02 06:43:02;;;;;;;10.40;7.15;;;;;;;17.08;56.84;100650.66;5048961;28;20060;-70
2021/09/02 06:45:29;;;;;;;14.50;7.63;;;;;;;16.97;57.45;100659.66;5047686;28;20476;-68
2021/09/02 06:47:56;;;;;;;13.98;7.88;;;;;;;16.98;57.56;100665.84;5045379;28;20400;-67
2021/09/02 06:50:23;;;;;;;10.82;6.85;;;;;;;16.95;57.61;100660.78;5044823;28;20045;-69
2021/09/02 06:52:52;;;;;;;15.30;6.28;;;;;;;17.05;57.33;100660.78;5045760;28;20049;-71
2021/09/02 06:55:19;;;;;;;14.98;8.15;;;;;;;17.02;56.84;100663.75;5044914;28;20040;-68
2021/09/02 06:57:46;;;;;;;16.67;8.35;;;;;;;17.04;56.59;100659.09;5043053;28;20049;-69
2021/09/02 07:00:14;;;;;;;9.55;5.78;;;;;;;17.03;56.76;100657.41;5043893;28;20045;-69
2021/09/02 07:02:42;;;;;;;9.82;5.60;;;;;;;17.08;55.82;100644.47;5044762;28;20053;-70
2021/09/02 07:05:10;;;;;;;10.65;6.20;;;;;;;17.14;56.57;100651.91;5044616;28;20051;-70
2021/09/02 07:07:37;;;;;;;11.25;5.63;;;;;;;17.20;55.82;100652.16;5043754;28;20045;-67
2021/09/02 07:10:07;;;;;;;7.93;5.00;;;;;;;17.28;55.28;100651.44;5044041;28;20045;-66
2021/09/02 07:12:33;;;;;;;11.50;5.47;;;;;;;17.31;54.57;100651.16;5043862;28;20057;-66
2021/09/02 07:15:00;;;;;;;13.35;5.13;;;;;;;17.41;54.25;100658.28;5043392;28;20406;-68
2021/09/02 07:17:27;;;;;;;12.55;5.25;;;;;;;17.56;54.62;100670.19;5044642;28;20045;-69
2021/09/02 07:19:54;;;;;;;9.25;4.28;;;;;;;17.67;54.03;100664.66;5043400;28;20041;-70
2021/09/02 07:22:21;;;;;;;8.27;5.22;;;;;;;17.95;53.45;100672.69;5042552;28;20083;-70
2021/09/02 07:24:48;;;;;;;7.97;5.43;;;;;;;18.17;52.75;100679.50;5042290;28;20704;-69
2021/09/02 07:27:17;;;;;;;9.82;4.97;;;;;;;18.41;50.33;100676.22;5042428;28;20166;-69
2021/09/02 07:29:44;;;;;;;6.68;4.03;;;;;;;18.62;49.98;100677.75;5044654;28;20555;-65
2021/09/02 07:32:11;;;;;;;9.88;4.80;;;;;;;18.75;49.67;100675.53;5043005;28;20506;-66
2021/09/02 07:34:38;;;;;;;7.78;3.95;;;;;;;18.69;48.49;100673.47;5042247;28;20061;-68
2021/09/02 07:37:04;;;;;;;6.70;4.05;;;;;;;18.63;49.15;100680.25;5043683;28;20588;-70
2021/09/02 07:39:32;;;;;;;7.03;3.45;;;;;;;18.64;49.38;100686.47;5046932;28;20041;-70
2021/09/02 07:41:59;;;;;;;7.88;4.20;;;;;;;18.64;49.81;100691.84;5046092;28;20049;-68
2021/09/02 07:44:27;;;;;;;6.43;3.95;;;;;;;18.61;49.02;100686.78;5045157;28;20045;-70
2021/09/02 07:46:54;;;;;;;6.70;3.67;;;;;;;18.65;48.80;100680.13;5045083;28;20053;-71
2021/09/02 07:49:20;;;;;;;6.68;3.75;;;;;;;18.69;49.27;100692.19;5053597;28;20413;-69
2021/09/02 07:51:50;;;;;;;6.68;3.50;;;;;;;18.77;48.38;100680.75;5047938;28;20053;-68
2021/09/02 07:54:17;;;;;;;6.75;4.57;;;;;;;18.80;47.44;100689.28;5047582;28;20047;-69
2021/09/02 07:56:43;;;;;;;6.57;4.35;;;;;;;18.88;47.15;100681.34;5052090;28;20496;-69
2021/09/02 07:59:10;;;;;;;7.35;4.82;;;;;;;18.94;46.96;100682.56;5047312;28;20639;-67
2021/09/02 08:01:39;;;;;;;8.02;3.65;;;;;;;19.06;46.88;100691.19;5047583;28;20605;-69
2021/09/02 08:04:05;;;;;;;6.40;3.45;;;;;;;19.29;47.81;100686.19;5046793;28;20048;-69
2021/09/02 08:06:32;;;;;;;5.18;3.38;;;;;;;19.25;47.28;100685.66;5047967;28;20048;-71
2021/09/02 08:08:59;;;;;;;11.18;4.03;;;;;;;19.24;47.66;100683.13;5047524;28;20049;-69
2021/09/02 08:11:27;;;;;;;6.45;4.15;;;;;;;19.15;47.37;100678.72;5049076;28;20061;-70
2021/09/02 08:13:54;;;;;;;6.03;3.85;;;;;;;19.26;47.81;100686.47;5047012;28;20045;-71
2021/09/02 08:16:22;;;;;;;8.45;4.72;;;;;;;19.33;48.01;100681.34;5047311;28;20052;-68
2021/09/02 08:18:51;;;;;;;5.75;4.22;;;;;;;19.32;47.45;100675.16;5047543;28;20044;-69
2021/09/02 08:21:18;;;;;;;6.90;4.18;;;;;;;19.40;47.80;100671.69;5045558;28;20052;-69
2021/09/02 08:23:45;;;;;;;8.05;4.53;;;;;;;19.57;47.00;100678.81;5047584;28;20643;-68
2021/09/02 08:26:11;;;;;;;6.22;3.47;;;;;;;19.94;47.59;100669.63;5046120;28;20546;-70
2021/09/02 08:28:38;;;;;;;7.25;5.22;;;;;;;19.87;45.42;100671.25;5046596;28;20420;-69
2021/09/02 08:31:05;;;;;;;12.07;4.20;;;;;;;19.92;46.65;100679.66;5053639;28;20041;-70
2021/09/02 08:33:32;;;;;;;6.93;4.70;;;;;;;20.02;46.35;100675.00;5058609;28;20473;-71
2021/09/02 08:36:00;;;;;;;9.20;4.18;;;;;;;20.06;46.23;100678.22;5049394;28;20044;-68
2021/09/02 08:38:28;;;;;;;7.05;4.70;;;;;;;20.05;46.27;100669.31;5046967;28;20539;-72
2021/09/02 08:40:55;;;;;;;7.43;4.45;;;;;;;20.04;46.03;100664.97;5047904;28;20405;-71
2021/09/02 08:43:22;;;;;;;8.35;4.80;;;;;;;20.09;46.02;100666.31;5054862;28;20059;-72
2021/09/02 08:45:49;;;;;;;7.55;4.70;;;;;;;20.12;46.40;100666.00;5049836;28;20049;-72
2021/09/02 08:48:18;;;;;;;9.10;4.80;;;;;;;20.32;46.36;100669.22;5046743;28;20631;-71
2021/09/02 08:50:44;;;;;;;7.50;4.43;;;;;;;20.42;45.51;100667.22;5047767;28;20099;-70
2021/09/02 08:53:13;;;;;;;8.90;5.25;;;;;;;20.53;44.20;100663.41;5047670;28;20053;-71
2021/09/02 08:55:40;;;;;;;6.97;4.22;;;;;;;20.61;45.10;100676.84;5046803;28;20415;-71
2021/09/02 08:58:07;;;;;;;6.78;4.10;;;;;;;20.74;43.89;100671.81;5046045;28;20051;-69
2021/09/02 09:00:34;;;;;;;6.75;4.85;;;;;;;20.87;43.55;100663.25;5047115;28;20048;-71
2021/09/02 09:03:03;;;;;;;5.07;4.15;;;;;;;20.93;43.77;100667.94;5045902;28;20052;-69
2021/09/02 09:05:32;;;;;;;7.78;5.35;;;;;;;21.08;42.93;100669.94;5045522;28;20049;-69
2021/09/02 09:08:00;;;;;;;7.05;4.03;;;;;;;21.13;42.62;100659.53;5046187;28;20630;-70
2021/09/02 09:10:30;;;;;;;8.77;5.22;;;;;;;21.37;42.69;100658.63;5043510;28;20049;-70
2021/09/02 09:12:59;;;;;;;7.38;4.32;;;;;;;21.33;43.02;100657.31;5046144;28;20088;-69
2021/09/02 09:15:28;;;;;;;8.40;4.38;;;;;;;21.41;43.00;100668.06;5046889;28;20045;-71
2021/09/02 09:17:57;;;;;;;5.63;4.70;;;;;;;21.48;42.47;100661.00;5047169;28;20045;-70
2021/09/02 09:20:26;;;;;;;7.80;5.60;;;;;;;21.41;43.26;100656.44;5052650;28;20400;-71
2021/09/02 09:22:58;;;;;;;7.63;6.07;;;;;;;21.17;44.33;100675.13;5047158;28;20049;-70
2021/09/02 09:25:26;;;;;;;9.40;6.65;;;;;;;21.12;44.39;100669.44;5046788;28;20406;-69
2021/09/02 09:27:58;;;;;;;7.50;4.43;;;;;;;21.45;44.29;100668.53;5047705;28;20065;-70
2021/09/02 09:30:27;;;;;;;8.27;4.65;;;;;;;21.73;43.61;100667.13;5050255;28;20045;-68
2021/09/02 09:32:56;;;;;;;8.43;4.63;;;;;;;21.67;43.77;100659.75;5044885;28;20095;-68
2021/09/02 09:35:27;;;;;;;7.30;5.32;;;;;;;21.56;43.84;100668.19;5045956;28;20055;-68
2021/09/02 09:38:04;;;;;;;6.20;4.53;;;;;;;21.65;43.02;100659.09;5044514;28;20045;-71
2021/09/02 09:40:31;;;;;;;7.70;4.85;;;;;;;21.67;43.75;100669.69;5044843;28;20056;-69
2021/09/02 09:43:02;;;;;;;7.75;5.13;;;;;;;21.90;44.06;100661.69;5045907;28;20053;-69
2021/09/02 09:45:47;;;;;;;8.02;5.07;;;;;;;22.07;43.52;100665.94;5044723;28;20049;-70
2021/09/02 09:48:31;;;;;;;9.23;5.30;;;;;;;21.98;43.92;100675.06;5043820;28;20044;-68
2021/09/02 09:51:16;;;;;;;5.97;3.90;;;;;;;22.23;43.99;100665.03;5045277;28;20045;-69
2021/09/02 09:53:45;;;;;;;8.05;5.55;;;;;;;22.30;43.90;100666.00;5045090;28;20547;-70
2021/09/02 09:56:12;;;;;;;7.25;4.60;;;;;;;22.04;42.67;100669.00;5045621;28;20045;-70
2021/09/02 09:58:43;;;;;;;5.90;3.90;;;;;;;21.97;41.88;100668.03;5045057;28;20116;-71
2021/09/02 10:01:12;;;;;;;5.97;3.85;;;;;;;21.66;42.66;100663.47;5046416;28;20057;-71
2021/09/02 10:03:41;;;;;;;7.30;4.88;;;;;;;21.33;44.20;100676.13;5046852;28;20080;-69
2021/09/02 10:06:10;;;;;;;6.43;4.45;;;;;;;21.11;45.54;100678.50;5046082;28;20044;-71
2021/09/02 10:08:39;;;;;;;8.48;4.93;;;;;;;20.95;46.24;100673.16;5046553;28;20045;-71
2021/09/02 10:11:08;;;;;;;7.60;4.75;;;;;;;20.84;46.55;100682.38;5045709;28;20061;-70
2021/09/02 10:13:36;;;;;;;8.18;5.03;;;;;;;20.75;46.79;100694.13;5046108;28;20052;-70
2021/09/02 10:16:06;;;;;;;9.18;5.95;;;;;;;20.43;49.39;100691.19;5045671;28;20298;-69
2021/09/02 10:18:38;;;;;;;8.40;4.88;;;;;;;19.45;51.21;100705.03;5046209;28;20071;-69
2021/09/02 10:21:07;;;;;;;9.80;4.85;;;;;;;18.98;54.79;100707.19;5044833;28;20048;-70
2021/09/02 10:23:34;;;;;;;10.35;6.38;;;;;;;18.64;56.08;100718.59;5047096;28;20052;-68
2021/09/02 10:26:02;;;;;;;11.15;7.32;;;;;;;18.39;57.69;100725.50;5045842;28;20049;-71
2021/09/02 10:28:34;;;;;;;10.95;7.40;;;;;;;18.28;58.38;100729.25;5045832;28;20048;-70
2021/09/02 10:31:02;;;;;;;12.85;7.82;;;;;;;18.12;59.31;100725.38;5045215;28;20049;-67
2021/09/02 10:33:42;;;;;;;10.13;7.55;;;;;;;17.91;60.66;100724.78;5047036;28;20056;-70
2021/09/02 10:36:43;;;;;;;10.07;8.30;;;;;;;17.84;61.40;100729.00;5048421;28;20048;-69
2021/09/02 10:39:10;;;;;;;11.43;8.50;;;;;;;17.70;61.80;100720.47;5003994;28;20056;-70
2021/09/02 10:41:49;;;;;;;10.82;8.02;;;;;;;17.69;62.25;100734.81;5002846;28;20606;-70
2021/09/02 10:44:18;;;;;;;11.10;8.05;;;;;;;17.66;61.80;100735.09;5003628;28;20142;-70
2021/09/02 10:46:46;;;;;;;9.40;7.82;;;;;;;17.56;62.42;100739.63;5004104;28;20054;-70
2021/09/02 10:49:24;;;;;;;9.50;7.53;;;;;;;17.56;62.39;100745.81;5001436;28;20066;-70
2021/09/02 10:51:54;;;;;;;10.20;7.38;;;;;;;17.57;62.42;100736.81;5003692;28;20050;-71
2021/09/02 10:54:28;;;;;;;10.70;7.60;;;;;;;17.73;61.85;100736.19;5005089;28;20050;-70
2021/09/02 10:57:02;;;;;;;11.30;8.18;;;;;;;17.90;61.46;100737.31;5005669;28;20054;-72
2021/09/02 10:59:37;;;;;;;10.65;8.13;;;;;;;17.98;61.70;100739.22;5002985;28;20631;-71
2021/09/02 11:02:08;;;;;;;9.18;7.80;;;;;;;18.03;61.12;100739.63;5004297;28;20053;-73
2021/09/02 11:04:37;;;;;;;11.45;8.57;;;;;;;18.25;61.10;100729.53;5003838;28;20102;-71
2021/09/02 11:07:04;;;;;;;9.30;7.20;;;;;;;18.29;60.41;100731.78;5003649;28;20229;-71
2021/09/02 11:09:34;;;;;;;8.32;6.35;;;;;;;18.39;60.15;100725.50;5014833;28;20041;-70
2021/09/02 11:12:05;;;;;;;7.85;6.32;;;;;;;18.48;59.39;100736.13;5046298;28;20208;-70
2021/09/02 11:14:32;;;;;;;8.88;5.88;;;;;;;18.51;57.90;100733.16;5046313;28;20098;-69
2021/09/02 11:17:06;;;;;;;11.20;6.20;;;;;;;18.72;57.13;100732.03;5045819;28;20523;-70
2021/09/02 11:19:38;;;;;;;8.52;6.57;;;;;;;18.78;56.64;100742.13;5047100;28;20041;-70
2021/09/02 11:22:11;;;;;;;8.05;5.50;;;;;;;18.74;57.20;100735.38;5049279;28;20080;-70
2021/09/02 11:24:43;;;;;;;7.88;5.72;;;;;;;18.84;57.08;100736.19;5054898;28;20044;-70